createdAt,value
2019-05-26T00:00:12.592Z,1.20
2019-05-26T00:02:39.660Z,1.00
2019-05-26T00:05:07.811Z,0.77
2019-05-26T00:07:34.874Z,1.53
2019-05-26T00:10:02.435Z,1.27
2019-05-26T00:12:29.823Z,1.00
2019-05-26T00:14:56.892Z,1.90
2019-05-26T00:17:23.960Z,1.63
2019-05-26T00:19:51.045Z,1.33
2019-05-26T00:22:18.198Z,1.47
2019-05-26T00:24:45.291Z,1.30
2019-05-26T00:27:12.412Z,1.40
2019-05-26T00:29:39.522Z,2.40
2019-05-26T00:32:06.592Z,0.83
2019-05-26T00:34:33.695Z,1.17
2019-05-26T00:37:00.772Z,2.20
2019-05-26T00:39:27.847Z,2.10
2019-05-26T00:41:54.918Z,1.23
2019-05-26T00:44:22.025Z,1.20
2019-05-26T00:46:49.171Z,1.53
2019-05-26T00:49:16.243Z,2.30
2019-05-26T00:51:43.318Z,1.90
2019-05-26T00:54:10.390Z,1.53
2019-05-26T00:56:37.464Z,1.47
2019-05-26T00:59:05.852Z,1.53
2019-05-26T01:01:32.935Z,1.60
2019-05-26T01:04:00.018Z,1.47
2019-05-26T01:06:27.093Z,2.43
2019-05-26T01:08:54.166Z,2.30
2019-05-26T01:11:21.257Z,1.37
2019-05-26T01:13:48.330Z,2.60
2019-05-26T01:16:15.405Z,1.37
2019-05-26T01:18:42.469Z,2.60
2019-05-26T01:21:09.545Z,2.60
2019-05-26T01:23:36.611Z,2.63
2019-05-26T01:26:03.690Z,4.67
2019-05-26T01:28:30.768Z,3.60
2019-05-26T01:30:57.877Z,5.13
2019-05-26T01:33:24.959Z,4.73
2019-05-26T01:35:52.238Z,5.93
2019-05-26T01:38:24.491Z,4.30
2019-05-26T01:40:48.530Z,2.53
2019-05-26T01:43:16.862Z,6.47
2019-05-26T01:45:43.929Z,4.93
2019-05-26T01:48:10.989Z,3.40
2019-05-26T01:50:38.064Z,3.80
2019-05-26T01:53:06.080Z,10.57
2019-05-26T01:55:33.469Z,4.70
2019-05-26T01:58:00.539Z,4.63
2019-05-26T02:00:27.715Z,4.63
2019-05-26T02:02:55.339Z,3.53
2019-05-26T02:05:22.484Z,5.53
2019-05-26T02:07:49.584Z,4.17
2019-05-26T02:10:16.662Z,5.33
2019-05-26T02:12:44.879Z,2.77
2019-05-26T02:15:13.274Z,2.93
2019-05-26T02:17:40.349Z,3.53
2019-05-26T02:20:07.728Z,5.53
2019-05-26T02:22:34.930Z,7.47
2019-05-26T02:25:02.193Z,2.83
2019-05-26T02:27:29.298Z,5.20
2019-05-26T02:29:56.411Z,6.30
2019-05-26T02:32:23.492Z,2.37
2019-05-26T02:34:50.563Z,3.90
2019-05-26T02:37:17.648Z,7.10
2019-05-26T02:39:44.723Z,4.03
2019-05-26T02:42:11.786Z,5.10
2019-05-26T02:44:38.871Z,5.40
2019-05-26T02:47:05.984Z,4.37
2019-05-26T02:49:33.068Z,2.67
2019-05-26T02:52:00.151Z,4.37
2019-05-26T02:54:27.228Z,3.33
2019-05-26T02:56:54.513Z,2.73
2019-05-26T02:59:21.599Z,5.57
2019-05-26T03:02:02.480Z,3.50
2019-05-26T03:04:18.085Z,8.17
2019-05-26T03:06:46.675Z,5.63
2019-05-26T03:09:22.573Z,6.53
2019-05-26T03:11:47.763Z,6.87
2019-05-26T03:14:17.876Z,4.57
2019-05-26T03:16:46.367Z,4.80
2019-05-26T03:19:15.741Z,4.67
2019-05-26T03:21:46.018Z,6.00
2019-05-26T03:24:16.865Z,5.97
2019-05-26T03:26:44.046Z,4.93
2019-05-26T03:29:11.122Z,3.93
2019-05-26T03:31:38.197Z,4.93
2019-05-26T03:34:05.297Z,5.63
2019-05-26T03:36:32.372Z,3.70
2019-05-26T03:38:59.453Z,7.37
2019-05-26T03:41:26.528Z,5.60
2019-05-26T03:43:53.641Z,3.30
2019-05-26T03:46:20.966Z,8.60
2019-05-26T03:48:48.876Z,3.83
2019-05-26T03:51:15.951Z,3.13
2019-05-26T03:53:43.019Z,2.50
2019-05-26T03:56:10.081Z,2.70
2019-05-26T03:58:38.574Z,3.67
2019-05-26T04:01:05.646Z,2.03
2019-05-26T04:03:32.734Z,4.47
2019-05-26T04:05:59.834Z,4.83
2019-05-26T04:08:26.902Z,5.40
2019-05-26T04:10:53.978Z,4.87
2019-05-26T04:13:21.087Z,7.00
2019-05-26T04:15:48.170Z,5.90
2019-05-26T04:18:15.252Z,3.27
2019-05-26T04:20:45.928Z,2.53
2019-05-26T04:23:13.216Z,3.37
2019-05-26T04:25:40.315Z,6.40
2019-05-26T04:28:07.380Z,2.17
2019-05-26T04:30:34.441Z,4.50
2019-05-26T04:33:01.563Z,2.83
2019-05-26T04:35:28.624Z,2.20
2019-05-26T04:37:55.700Z,3.03
2019-05-26T04:40:27.343Z,3.43
2019-05-26T04:42:51.750Z,4.00
2019-05-26T04:45:18.840Z,4.90
2019-05-26T04:47:45.913Z,3.63
2019-05-26T04:50:13.082Z,2.60
2019-05-26T04:52:40.199Z,2.27
2019-05-26T04:55:07.662Z,1.50
2019-05-26T04:57:34.739Z,2.67
2019-05-26T05:00:01.836Z,2.73
2019-05-26T05:02:28.908Z,4.93
2019-05-26T05:04:55.981Z,3.00
2019-05-26T05:07:23.065Z,3.50
2019-05-26T05:09:50.136Z,3.73
2019-05-26T05:12:17.211Z,3.57
2019-05-26T05:14:44.327Z,2.73
2019-05-26T05:17:11.405Z,2.73
2019-05-26T05:19:38.508Z,4.27
2019-05-26T05:22:05.583Z,3.00
2019-05-26T05:24:32.683Z,3.80
2019-05-26T05:26:59.766Z,5.67
2019-05-26T05:29:26.840Z,2.67
2019-05-26T05:31:53.960Z,2.60
2019-05-26T05:34:21.035Z,4.50
2019-05-26T05:36:48.101Z,2.13
2019-05-26T05:39:15.200Z,2.20
2019-05-26T05:41:42.284Z,2.70
2019-05-26T05:44:09.375Z,1.90
2019-05-26T05:46:36.463Z,2.97
2019-05-26T05:49:03.646Z,3.80
2019-05-26T05:51:30.716Z,3.00
2019-05-26T05:53:57.797Z,3.23
2019-05-26T05:56:24.868Z,3.87
2019-05-26T05:58:51.949Z,2.97
2019-05-26T06:01:20.272Z,3.67
2019-05-26T06:03:48.431Z,4.63
2019-05-26T06:06:15.520Z,1.93
2019-05-26T06:08:42.584Z,1.53
2019-05-26T06:11:16.354Z,3.23
2019-05-26T06:13:38.684Z,2.23
2019-05-26T06:16:05.789Z,3.17
2019-05-26T06:18:32.856Z,2.77
2019-05-26T06:20:59.930Z,3.00
2019-05-26T06:23:27.047Z,4.60
2019-05-26T06:25:54.135Z,3.87
2019-05-26T06:28:21.220Z,2.57
2019-05-26T06:30:48.298Z,1.93
2019-05-26T06:33:15.370Z,2.37
2019-05-26T06:35:42.468Z,2.10
2019-05-26T06:38:09.555Z,3.83
2019-05-26T06:40:36.628Z,2.00
2019-05-26T06:43:03.816Z,2.70
2019-05-26T06:45:30.919Z,1.50
2019-05-26T06:47:58.235Z,2.63
2019-05-26T06:50:25.312Z,1.70
2019-05-26T06:52:52.398Z,2.83
2019-05-26T06:55:19.469Z,4.03
2019-05-26T06:57:46.537Z,2.17
2019-05-26T07:00:13.608Z,3.07
2019-05-26T07:02:40.683Z,1.67
2019-05-26T07:05:09.949Z,2.80
2019-05-26T07:07:37.060Z,4.93
2019-05-26T07:10:04.973Z,1.47
2019-05-26T07:12:32.038Z,1.50
2019-05-26T07:14:59.111Z,2.27
2019-05-26T07:17:26.187Z,1.57
2019-05-26T07:19:53.264Z,2.50
2019-05-26T07:22:20.356Z,1.87
2019-05-26T07:24:47.431Z,1.50
2019-05-26T07:27:14.508Z,2.00
2019-05-26T07:29:41.874Z,3.37
2019-05-26T07:32:08.951Z,3.60
2019-05-26T07:34:36.038Z,6.03
2019-05-26T07:37:03.102Z,2.63
2019-05-26T07:39:30.176Z,1.20
2019-05-26T07:42:09.975Z,2.07
2019-05-26T07:44:28.022Z,2.10
2019-05-26T07:46:55.095Z,1.60
2019-05-26T07:49:22.170Z,2.40
2019-05-26T07:51:49.233Z,2.40
2019-05-26T07:54:25.187Z,1.27
2019-05-26T07:56:45.283Z,1.57
2019-05-26T07:59:12.355Z,2.30
2019-05-26T08:01:39.435Z,1.30
2019-05-26T08:04:06.535Z,1.77
2019-05-26T08:06:33.653Z,1.57
2019-05-26T08:09:00.717Z,3.60
2019-05-26T08:11:27.794Z,2.53
2019-05-26T08:13:54.867Z,2.03
2019-05-26T08:16:23.115Z,1.10
2019-05-26T08:18:50.199Z,3.27
2019-05-26T08:21:18.375Z,2.77
2019-05-26T08:23:45.471Z,3.27
2019-05-26T08:26:12.536Z,1.30
2019-05-26T08:28:39.610Z,3.83
2019-05-26T08:31:06.690Z,1.43
2019-05-26T08:33:34.313Z,2.10
2019-05-26T08:36:01.377Z,2.40
2019-05-26T08:38:28.547Z,2.17
2019-05-26T08:40:55.623Z,3.33
2019-05-26T08:43:22.697Z,0.87
2019-05-26T08:45:49.788Z,1.97
2019-05-26T08:48:16.852Z,1.20
2019-05-26T08:50:43.935Z,2.87
2019-05-26T08:53:11.019Z,2.73
2019-05-26T08:55:38.097Z,1.23
2019-05-26T08:58:05.385Z,2.37
2019-05-26T09:00:32.502Z,2.10
2019-05-26T09:02:59.660Z,1.63
2019-05-26T09:05:26.730Z,3.67
2019-05-26T09:07:53.803Z,2.27
2019-05-26T09:10:20.903Z,2.30
2019-05-26T09:13:00.269Z,1.43
2019-05-26T09:15:17.266Z,0.87
2019-05-26T09:17:44.353Z,3.33
2019-05-26T09:20:12.152Z,3.33
2019-05-26T09:22:39.355Z,0.90
2019-05-26T09:25:07.518Z,1.73
2019-05-26T09:27:34.707Z,1.17
2019-05-26T09:30:01.783Z,2.20
2019-05-26T09:32:28.850Z,2.53
2019-05-26T09:34:56.067Z,2.70
2019-05-26T09:37:23.146Z,4.30
2019-05-26T09:39:50.214Z,2.67
2019-05-26T09:42:17.328Z,4.27
2019-05-26T09:44:44.411Z,3.27
2019-05-26T09:47:11.489Z,3.40
2019-05-26T09:49:38.575Z,7.00
2019-05-26T09:52:05.652Z,2.90
2019-05-26T09:54:32.731Z,3.97
2019-05-26T09:56:59.898Z,4.40
2019-05-26T09:59:26.964Z,3.93
2019-05-26T10:01:54.067Z,3.00
2019-05-26T10:04:21.143Z,3.00
2019-05-26T10:06:48.224Z,2.63
2019-05-26T10:09:15.300Z,1.47
2019-05-26T10:11:42.377Z,2.27
2019-05-26T10:14:09.446Z,3.20
2019-05-26T10:16:36.529Z,4.60
2019-05-26T10:19:03.604Z,3.87
2019-05-26T10:21:30.675Z,2.53
2019-05-26T10:23:57.750Z,5.87
2019-05-26T10:26:24.834Z,4.27
2019-05-26T10:28:51.923Z,6.37
2019-05-26T10:31:18.996Z,3.43
2019-05-26T10:33:47.872Z,2.80
2019-05-26T10:36:14.943Z,2.77
2019-05-26T10:38:42.018Z,4.67
2019-05-26T10:41:09.086Z,4.07
2019-05-26T10:43:47.035Z,5.17
2019-05-26T10:46:05.262Z,2.17
2019-05-26T10:48:32.334Z,2.80
2019-05-26T10:50:59.406Z,2.50
2019-05-26T10:53:26.485Z,4.23
2019-05-26T10:55:53.559Z,3.77
2019-05-26T10:58:20.633Z,4.77
2019-05-26T11:00:47.707Z,3.57
2019-05-26T11:03:14.786Z,2.83
2019-05-26T11:05:42.023Z,3.10
2019-05-26T11:08:09.095Z,4.17
2019-05-26T11:10:36.173Z,2.93
2019-05-26T11:13:03.547Z,2.30
2019-05-26T11:15:30.629Z,2.80
2019-05-26T11:17:57.844Z,5.43
2019-05-26T11:20:25.135Z,3.00
2019-05-26T11:22:52.229Z,3.70
2019-05-26T11:25:19.413Z,5.43
2019-05-26T11:27:46.491Z,3.03
2019-05-26T11:30:14.988Z,2.60
2019-05-26T11:32:44.513Z,4.60
2019-05-26T11:35:11.941Z,2.03
2019-05-26T11:37:39.012Z,5.20
2019-05-26T11:40:06.528Z,1.50
2019-05-26T11:42:33.603Z,3.63
2019-05-26T11:45:00.682Z,2.23
2019-05-26T11:47:27.757Z,3.23
2019-05-26T11:49:54.833Z,2.07
2019-05-26T11:52:23.212Z,4.43
2019-05-26T11:54:50.298Z,1.20
2019-05-26T11:57:17.371Z,3.17
2019-05-26T11:59:47.151Z,0.97
2019-05-26T12:02:13.432Z,0.83
2019-05-26T12:04:40.533Z,0.43
2019-05-26T12:07:11.040Z,1.23
2019-05-26T12:09:38.179Z,0.60
2019-05-26T12:12:06.540Z,2.00
2019-05-26T12:14:35.503Z,1.20
2019-05-26T12:17:02.919Z,0.40
2019-05-26T12:19:32.991Z,0.50
2019-05-26T12:22:00.195Z,0.90
2019-05-26T12:24:27.327Z,0.90
2019-05-26T12:26:56.950Z,2.43
2019-05-26T12:29:25.481Z,2.23
2019-05-26T12:31:54.558Z,2.77
2019-05-26T12:34:23.877Z,0.70
2019-05-26T12:36:53.799Z,1.80
2019-05-26T12:39:20.922Z,2.93
2019-05-26T12:41:48.104Z,0.70
2019-05-26T12:44:15.242Z,0.70
2019-05-26T12:46:42.375Z,0.70
2019-05-26T12:49:09.635Z,1.10
2019-05-26T12:51:36.825Z,0.97
2019-05-26T12:54:07.495Z,0.30
2019-05-26T12:56:36.818Z,0.80
2019-05-26T12:59:04.618Z,1.00
2019-05-26T13:01:31.946Z,3.10
2019-05-26T13:04:01.787Z,1.57
2019-05-26T13:06:28.863Z,4.77
2019-05-26T13:08:55.940Z,1.13
2019-05-26T13:11:23.053Z,3.67
2019-05-26T13:13:50.099Z,0.80
2019-05-26T13:16:17.184Z,1.60
2019-05-26T13:18:44.264Z,1.80
2019-05-26T13:21:11.397Z,2.80
2019-05-26T13:23:38.500Z,2.83
2019-05-26T13:26:05.563Z,1.20
2019-05-26T13:28:32.662Z,0.40
2019-05-26T13:30:59.728Z,2.73
2019-05-26T13:33:26.818Z,0.87
2019-05-26T13:35:53.886Z,1.37
2019-05-26T13:38:20.986Z,1.03
2019-05-26T13:40:48.056Z,1.07
2019-05-26T13:43:15.157Z,0.77
2019-05-26T13:45:42.228Z,0.20
2019-05-26T13:48:09.309Z,0.77
2019-05-26T13:50:36.395Z,1.00
2019-05-26T13:53:03.766Z,1.13
2019-05-26T13:55:30.843Z,1.23
2019-05-26T13:57:57.944Z,4.17
2019-05-26T14:00:25.168Z,0.30
2019-05-26T14:02:52.459Z,2.97
2019-05-26T14:05:19.665Z,2.30
2019-05-26T14:07:46.783Z,2.33
2019-05-26T14:10:19.363Z,0.70
2019-05-26T14:12:46.546Z,0.43
2019-05-26T14:15:14.111Z,0.53
2019-05-26T14:17:42.799Z,0.80
2019-05-26T14:20:11.598Z,5.43
2019-05-26T14:22:38.657Z,0.50
2019-05-26T14:25:06.953Z,0.10
2019-05-26T14:27:34.068Z,0.80
2019-05-26T14:30:01.411Z,0.17
2019-05-26T14:32:28.473Z,0.30
2019-05-26T14:34:55.552Z,0.30
2019-05-26T14:37:22.628Z,0.60
2019-05-26T14:39:50.144Z,0.30
2019-05-26T14:42:17.403Z,0.47
2019-05-26T14:44:44.504Z,1.03
2019-05-26T14:47:11.586Z,0.80
2019-05-26T14:49:38.658Z,0.93
2019-05-26T14:52:05.794Z,1.53
2019-05-26T14:54:32.887Z,0.83
2019-05-26T14:56:59.971Z,3.53
2019-05-26T14:59:27.046Z,0.80
2019-05-26T15:01:54.119Z,0.60
2019-05-26T15:04:21.188Z,1.90
2019-05-26T15:06:49.373Z,1.97
2019-05-26T15:09:24.795Z,0.73
2019-05-26T15:11:45.682Z,0.40
2019-05-26T15:14:12.775Z,2.60
2019-05-26T15:16:39.853Z,1.47
2019-05-26T15:19:06.927Z,1.33
2019-05-26T15:21:34.006Z,1.60
2019-05-26T15:24:01.078Z,3.27
2019-05-26T15:26:28.205Z,2.77
2019-05-26T15:28:55.331Z,1.80
2019-05-26T15:31:22.413Z,0.10
2019-05-26T15:33:49.469Z,1.53
2019-05-26T15:36:16.557Z,0.90
2019-05-26T15:38:43.631Z,0.23
2019-05-26T15:41:10.743Z,0.40
2019-05-26T15:43:37.785Z,1.47
2019-05-26T15:46:04.890Z,0.20
2019-05-26T15:48:31.971Z,1.03
2019-05-26T15:50:59.046Z,1.40
2019-05-26T15:53:26.631Z,1.07
2019-05-26T15:55:53.906Z,0.93
2019-05-26T15:58:21.043Z,0.70
2019-05-26T16:00:48.329Z,0.30
2019-05-26T16:03:17.441Z,1.03
2019-05-26T16:05:48.568Z,1.20
2019-05-26T16:08:21.785Z,0.33
2019-05-26T16:10:51.532Z,1.60
2019-05-26T16:13:22.708Z,0.23
2019-05-26T16:15:49.786Z,0.47
2019-05-26T16:18:19.240Z,1.33
2019-05-26T16:20:48.770Z,0.27
2019-05-26T16:23:16.142Z,0.30
2019-05-26T16:25:44.841Z,0.67
2019-05-26T16:28:13.774Z,0.30
2019-05-26T16:30:42.111Z,0.17
2019-05-26T16:33:09.339Z,3.40
2019-05-26T16:35:36.647Z,0.30
2019-05-26T16:38:03.996Z,0.70
2019-05-26T16:40:33.004Z,0.43
2019-05-26T16:43:00.578Z,0.40
2019-05-26T16:45:31.562Z,0.50
2019-05-26T16:47:58.843Z,2.00
2019-05-26T16:50:25.996Z,0.23
2019-05-26T16:52:54.651Z,0.20
2019-05-26T16:55:21.986Z,0.30
2019-05-26T16:57:49.271Z,0.57
2019-05-26T17:00:18.348Z,1.77
2019-05-26T17:02:48.188Z,1.90
2019-05-26T17:05:15.456Z,1.07
2019-05-26T17:07:45.490Z,0.40
2019-05-26T17:10:17.435Z,0.97
2019-05-26T17:12:47.159Z,3.27
2019-05-26T17:15:15.991Z,0.77
2019-05-26T17:17:45.019Z,0.30
2019-05-26T17:20:14.275Z,0.30
2019-05-26T17:22:41.574Z,0.30
2019-05-26T17:25:10.822Z,0.20
2019-05-26T17:27:37.963Z,0.67
2019-05-26T17:30:06.123Z,0.30
2019-05-26T17:32:39.115Z,0.47
2019-05-26T17:35:06.751Z,0.30
2019-05-26T17:37:35.658Z,0.83
2019-05-26T17:40:05.620Z,0.20
2019-05-26T17:42:35.083Z,0.77
2019-05-26T17:45:02.330Z,0.30
2019-05-26T17:47:30.928Z,0.20
2019-05-26T17:50:00.474Z,0.20
2019-05-26T17:52:27.554Z,0.40
2019-05-26T17:54:54.615Z,0.40
2019-05-26T17:57:23.530Z,0.60
2019-05-26T17:59:50.640Z,0.60
2019-05-26T18:02:20.761Z,0.30
2019-05-26T18:04:48.083Z,0.20
2019-05-26T18:07:15.165Z,0.33
2019-05-26T18:09:44.473Z,0.30
2019-05-26T18:12:11.258Z,1.80
2019-05-26T18:14:38.634Z,0.60
2019-05-26T18:17:05.765Z,2.67
2019-05-26T18:19:35.692Z,0.60
2019-05-26T18:22:02.916Z,0.60
2019-05-26T18:24:30.036Z,1.77
2019-05-26T18:26:57.271Z,2.10
2019-05-26T18:29:24.312Z,0.53
2019-05-26T18:31:51.420Z,0.90
2019-05-26T18:34:18.533Z,0.40
2019-05-26T18:36:48.376Z,1.23
2019-05-26T18:39:15.475Z,1.23
2019-05-26T18:41:42.580Z,0.50
2019-05-26T18:44:09.740Z,0.37
2019-05-26T18:46:36.824Z,0.63
2019-05-26T18:49:04.078Z,1.07
2019-05-26T18:51:31.368Z,0.30
2019-05-26T18:53:58.873Z,0.50
2019-05-26T18:56:28.564Z,0.77
2019-05-26T18:58:57.339Z,2.30
2019-05-26T19:01:24.698Z,0.57
2019-05-26T19:03:51.879Z,0.80
2019-05-26T19:06:18.970Z,0.43
2019-05-26T19:08:55.390Z,4.67
2019-05-26T19:11:23.642Z,0.50
2019-05-26T19:13:50.860Z,1.03
2019-05-26T19:16:19.251Z,2.40
2019-05-26T19:18:48.110Z,0.80
2019-05-26T19:21:15.250Z,0.63
2019-05-26T19:23:42.423Z,0.37
2019-05-26T19:26:09.727Z,1.17
2019-05-26T19:28:36.841Z,0.80
2019-05-26T19:31:05.055Z,0.83
2019-05-26T19:33:34.695Z,0.80
2019-05-26T19:36:01.884Z,0.50
2019-05-26T19:38:28.978Z,0.83
2019-05-26T19:40:56.306Z,0.60
2019-05-26T19:43:23.386Z,0.53
2019-05-26T19:45:50.667Z,0.43
2019-05-26T19:48:17.737Z,0.77
2019-05-26T19:50:44.822Z,0.60
2019-05-26T19:53:11.931Z,0.27
2019-05-26T19:55:42.078Z,1.00
2019-05-26T19:58:09.147Z,1.00
2019-05-26T20:00:36.239Z,0.70
2019-05-26T20:03:03.729Z,0.70
2019-05-26T20:05:32.640Z,0.53
2019-05-26T20:07:59.739Z,1.63
2019-05-26T20:10:26.889Z,0.40
2019-05-26T20:12:53.978Z,0.70
2019-05-26T20:15:22.626Z,0.30
2019-05-26T20:18:17.465Z,0.30
2019-05-26T20:20:44.544Z,0.83
2019-05-26T20:23:12.726Z,1.00
2019-05-26T20:25:39.794Z,5.30
2019-05-26T20:28:06.899Z,0.80
2019-05-26T20:30:36.713Z,0.47
2019-05-26T20:33:03.798Z,0.90
2019-05-26T20:35:34.922Z,0.50
2019-05-26T20:38:01.993Z,0.70
2019-05-26T20:40:34.790Z,0.93
2019-05-26T20:43:09.360Z,0.77
2019-05-26T20:45:40.915Z,0.43
2019-05-26T20:48:07.985Z,0.80
2019-05-26T20:50:35.050Z,1.10
2019-05-26T20:53:02.151Z,0.80
2019-05-26T20:55:29.376Z,1.10
2019-05-26T20:58:00.083Z,1.07
2019-05-26T21:00:27.306Z,0.80
2019-05-26T21:03:00.128Z,0.70
2019-05-26T21:05:34.086Z,1.37
2019-05-26T21:08:01.167Z,0.43
2019-05-26T21:10:28.256Z,0.70
2019-05-26T21:12:55.351Z,1.87
2019-05-26T21:15:22.430Z,2.13
2019-05-26T21:17:49.535Z,0.90
2019-05-26T21:20:19.306Z,1.43
2019-05-26T21:22:47.756Z,0.60
2019-05-26T21:25:17.056Z,1.57
2019-05-26T21:27:44.146Z,1.63
2019-05-26T21:30:12.778Z,1.10
2019-05-26T21:32:39.868Z,1.53
2019-05-26T21:35:07.289Z,1.10
2019-05-26T21:37:34.364Z,1.20
2019-05-26T21:40:02.754Z,1.30
2019-05-26T21:42:29.842Z,2.13
2019-05-26T21:45:00.074Z,2.00
2019-05-26T21:47:27.158Z,2.87
2019-05-26T21:49:55.616Z,1.73
2019-05-26T21:52:22.696Z,2.27
2019-05-26T21:54:49.773Z,1.83
2019-05-26T21:57:16.852Z,1.03
2019-05-26T21:59:43.948Z,2.70
2019-05-26T22:02:11.129Z,1.70
2019-05-26T22:04:38.270Z,1.37
2019-05-26T22:07:05.484Z,1.90
2019-05-26T22:09:32.682Z,1.47
2019-05-26T22:11:59.779Z,1.17
2019-05-26T22:14:26.855Z,0.90
2019-05-26T22:16:53.944Z,2.20
2019-05-26T22:19:21.024Z,1.50
2019-05-26T22:21:48.118Z,2.53
2019-05-26T22:24:15.271Z,4.27
2019-05-26T22:26:42.427Z,1.30
2019-05-26T22:29:09.507Z,2.03
2019-05-26T22:31:36.586Z,1.20
2019-05-26T22:34:03.678Z,1.43
2019-05-26T22:36:30.780Z,1.03
2019-05-26T22:38:57.856Z,0.77
2019-05-26T22:41:24.974Z,2.57
2019-05-26T22:43:52.030Z,2.70
2019-05-26T22:46:19.111Z,2.43
2019-05-26T22:48:46.202Z,1.30
2019-05-26T22:51:13.297Z,0.80
2019-05-26T22:53:40.402Z,0.83
2019-05-26T22:56:07.508Z,0.90
2019-05-26T22:58:34.598Z,0.77
2019-05-26T23:01:01.682Z,0.60
2019-05-26T23:03:28.799Z,1.10
2019-05-26T23:05:55.928Z,0.93
2019-05-26T23:08:24.129Z,0.90
2019-05-26T23:10:51.218Z,1.37
2019-05-26T23:13:18.295Z,0.60
2019-05-26T23:15:45.379Z,0.70
2019-05-26T23:18:12.469Z,0.97
2019-05-26T23:20:39.561Z,2.97
2019-05-26T23:23:06.635Z,1.17
2019-05-26T23:25:33.740Z,0.60
2019-05-26T23:28:00.829Z,0.60
2019-05-26T23:30:27.936Z,1.57
2019-05-26T23:32:55.065Z,0.90
2019-05-26T23:35:22.183Z,1.03
2019-05-26T23:37:56.984Z,0.60
2019-05-26T23:40:28.554Z,1.07
2019-05-26T23:42:57.715Z,0.50
2019-05-26T23:45:29.660Z,0.60
2019-05-26T23:47:57.001Z,2.30
2019-05-26T23:50:31.548Z,0.47
2019-05-26T23:53:00.639Z,1.20
2019-05-26T23:55:32.818Z,0.50
2019-05-26T23:58:04.700Z,1.00
